Time;durP1;ratioP1;P1;durP2;ratioP2;P2;SDS_P1;SDS_P2;PMS_P1;PMS_P2;Temp;Humidity;BMP_temperature;BMP_pressure;BME280_temperature;BME280_humidity;BME280_pressure;Samples;Min_cycle;Max_cycle;Signal;HPM_P1;HPM_P2
2024/02/21 00:00:42;;;;;;;29.83;7.95;;;11.20;99.90;;;11.43;100.00;102015.38;4973310;28;20046;-70
2024/02/21 00:03:11;;;;;;;30.70;8.77;;;11.20;99.90;;;11.42;100.00;102000.34;4973677;28;20039;-71
2024/02/21 00:05:39;;;;;;;36.08;7.95;;;11.20;99.90;;;11.50;100.00;102017.19;4973314;28;20543;-71
2024/02/21 00:08:08;;;;;;;31.60;7.22;;;11.20;99.90;;;11.59;100.00;102024.38;4973309;28;20054;-70
2024/02/21 00:10:38;;;;;;;30.75;7.65;;;11.30;99.90;;;11.58;100.00;102012.88;4973324;28;20035;-71
2024/02/21 00:13:06;;;;;;;38.30;7.78;;;11.30;99.90;;;11.54;100.00;102011.06;4988418;28;20492;-71
2024/02/21 00:15:35;;;;;;;33.75;7.45;;;11.40;99.90;;;11.56;100.00;102004.03;4988480;28;20449;-71
2024/02/21 00:18:03;;;;;;;30.98;7.93;;;11.30;99.90;;;11.51;100.00;102005.75;4974459;28;20059;-71
2024/02/21 00:20:32;;;;;;;26.38;7.95;;;11.30;99.90;;;11.52;100.00;102018.09;4991881;28;20057;-70
2024/02/21 00:23:00;;;;;;;26.48;6.88;;;11.40;99.90;;;11.51;100.00;102026.06;4976624;28;20412;-71
2024/02/21 00:25:28;;;;;;;24.58;7.22;;;11.30;99.90;;;11.47;100.00;102016.28;4976908;28;20043;-70
2024/02/21 00:27:58;;;;;;;34.28;8.10;;;11.20;99.90;;;11.39;100.00;102010.91;4976798;28;20042;-70
2024/02/21 00:30:27;;;;;;;27.45;7.65;;;11.20;99.90;;;11.52;100.00;102026.06;4976790;28;20069;-71
2024/02/21 00:32:55;;;;;;;24.30;7.07;;;11.30;99.90;;;11.49;100.00;102026.03;4976755;28;20051;-71
2024/02/21 00:35:24;;;;;;;29.98;7.85;;;11.30;99.90;;;11.41;100.00;102026.81;4977190;28;20039;-71
2024/02/21 00:37:53;;;;;;;32.45;7.95;;;11.20;99.90;;;11.51;100.00;102029.59;4976765;28;20051;-71
2024/02/21 00:40:22;;;;;;;28.30;8.00;;;11.30;99.90;;;11.52;100.00;102018.09;4976367;28;20039;-71
2024/02/21 00:42:50;;;;;;;27.90;7.68;;;11.20;99.90;;;11.56;100.00;102014.63;4976557;28;20499;-71
2024/02/21 00:45:20;;;;;;;23.77;6.72;;;11.30;99.90;;;11.50;100.00;102025.16;4976291;28;20038;-71
2024/02/21 00:47:48;;;;;;;30.33;7.50;;;11.30;99.90;;;11.51;100.00;102005.75;4976284;28;20118;-72
2024/02/21 00:50:17;;;;;;;24.35;7.75;;;11.30;99.90;;;11.51;100.00;101999.56;4976547;28;20042;-71
2024/02/21 00:52:45;;;;;;;36.83;8.43;;;11.30;99.90;;;11.56;100.00;102001.38;4976128;28;20531;-71
2024/02/21 00:55:13;;;;;;;31.17;7.78;;;11.30;99.90;;;11.58;100.00;102002.28;4976170;28;20231;-71
2024/02/21 00:57:42;;;;;;;35.97;7.70;;;11.30;99.90;;;11.54;100.00;101989.88;4975105;28;20046;-72
2024/02/21 01:00:12;;;;;;;26.35;7.03;;;11.30;99.90;;;11.49;100.00;101980.09;4976276;28;20042;-72
2024/02/21 01:02:41;;;;;;;39.10;8.55;;;11.30;99.90;;;11.55;100.00;101980.16;4975895;28;20047;-71
2024/02/21 01:05:10;;;;;;;28.52;7.55;;;11.30;99.90;;;11.61;100.00;101974.91;4975928;28;20066;-71
2024/02/21 01:07:38;;;;;;;22.63;7.57;;;11.30;99.90;;;11.59;100.00;101969.59;4976184;28;20052;-71
2024/02/21 01:10:09;;;;;;;32.45;7.88;;;11.40;99.90;;;11.64;100.00;101966.97;4976084;28;20121;-71
2024/02/21 01:12:37;;;;;;;25.02;7.20;;;11.40;99.90;;;11.64;100.00;101977.59;4975877;28;20415;-70
2024/02/21 01:15:07;;;;;;;29.85;7.63;;;11.40;99.90;;;11.71;100.00;101976.81;4976277;28;20049;-71
2024/02/21 01:17:35;;;;;;;34.22;7.72;;;11.50;99.90;;;11.66;100.00;101974.13;4975726;28;20488;-71
2024/02/21 01:20:07;;;;;;;33.85;8.85;;;11.40;99.90;;;11.63;100.00;101959.94;4975690;28;20042;-71
2024/02/21 01:22:35;;;;;;;26.92;8.15;;;11.40;99.90;;;11.59;100.00;101956.34;4975653;28;20513;-71
2024/02/21 01:25:05;;;;;;;29.88;8.15;;;11.40;99.90;;;11.68;100.00;101971.47;4975810;28;20508;-71
2024/02/21 01:27:33;;;;;;;28.07;7.37;;;11.40;99.90;;;11.65;100.00;101969.69;4975817;28;20035;-70
2024/02/21 01:30:02;;;;;;;25.60;7.75;;;11.40;99.90;;;11.69;100.00;101963.53;4974978;28;20313;-70
2024/02/21 01:32:30;;;;;;;25.88;7.05;;;11.40;99.90;;;11.71;100.00;101960.91;4975768;28;20464;-70
2024/02/21 01:34:59;;;;;;;31.25;8.48;;;11.50;99.90;;;11.75;100.00;101965.34;4975250;28;20039;-70
2024/02/21 01:37:29;;;;;;;24.90;7.43;;;11.50;99.90;;;11.82;100.00;101958.34;4975289;28;20086;-70
2024/02/21 01:39:57;;;;;;;25.48;7.35;;;11.50;99.90;;;11.81;100.00;101960.09;4975576;28;20485;-70
2024/02/21 01:42:25;;;;;;;27.88;7.68;;;11.60;99.90;;;11.72;100.00;101952.97;4975888;28;20090;-70
2024/02/21 01:44:54;;;;;;;28.88;7.72;;;11.50;99.90;;;11.69;100.00;101949.41;4975139;28;20078;-71
2024/02/21 01:47:22;;;;;;;28.17;7.35;;;11.50;99.90;;;11.66;100.00;101952.91;4975348;28;20497;-70
2024/02/21 01:49:51;;;;;;;30.75;8.25;;;11.40;99.90;;;11.61;100.00;101949.28;4975588;28;20097;-71
2024/02/21 01:52:20;;;;;;;23.90;7.07;;;11.40;99.90;;;11.47;100.00;101928.84;4975049;28;20468;-71
2024/02/21 01:54:49;;;;;;;31.48;8.23;;;11.40;99.90;;;11.67;100.00;101949.38;4975483;28;20050;-72
2024/02/21 01:57:18;;;;;;;30.25;7.82;;;11.40;99.90;;;11.69;100.00;101938.81;4974977;28;20562;-71
2024/02/21 01:59:47;;;;;;;26.55;7.35;;;11.40;99.90;;;11.67;100.00;101936.13;4975122;28;20489;-71
2024/02/21 02:02:16;;;;;;;30.20;7.50;;;11.40;99.90;;;11.70;100.00;101928.22;4975098;28;20046;-71
2024/02/21 02:04:45;;;;;;;26.90;7.00;;;11.50;99.90;;;11.61;100.00;101925.44;4975143;28;20061;-70
2024/02/21 02:07:14;;;;;;;24.65;8.30;;;11.40;99.90;;;11.60;100.00;101917.47;4974820;28;20125;-71
2024/02/21 02:09:43;;;;;;;23.73;7.05;;;11.40;99.90;;;11.67;100.00;101914.91;4974719;28;20043;-71
2024/02/21 02:12:13;;;;;;;32.35;8.02;;;11.40;99.90;;;11.46;100.00;101895.28;4989737;28;20053;-71
2024/02/21 02:14:41;;;;;;;26.40;8.13;;;11.30;99.90;;;11.53;100.00;101900.66;4974656;28;20047;-70
2024/02/21 02:17:10;;;;;;;28.80;7.80;;;11.30;99.90;;;11.67;100.00;101920.22;4989734;28;20050;-70
2024/02/21 02:19:38;;;;;;;28.58;8.25;;;11.40;99.90;;;11.67;100.00;101919.34;4974549;28;20125;-70
2024/02/21 02:22:16;;;;;;;23.15;7.75;;;11.40;99.90;;;11.59;100.00;101913.94;4974647;28;20460;-70
2024/02/21 02:24:46;;;;;;;25.05;7.78;;;11.30;99.90;;;11.64;100.00;101917.53;4974607;28;20043;-70
2024/02/21 02:27:14;;;;;;;28.00;8.25;;;11.40;99.90;;;11.60;100.00;101907.78;4974440;28;20043;-70
2024/02/21 02:29:42;;;;;;;24.98;7.53;;;11.30;99.90;;;11.60;100.00;101914.81;4974844;28;20067;-70
2024/02/21 02:32:12;;;;;;;26.65;7.57;;;11.30;99.90;;;11.60;100.00;101914.81;4974349;28;20054;-70
2024/02/21 02:34:41;;;;;;;21.77;7.45;;;11.40;99.90;;;11.67;100.00;101914.06;4974403;28;20046;-70
2024/02/21 02:37:09;;;;;;;28.08;7.35;;;11.40;99.90;;;11.64;100.00;101896.31;4974527;28;20047;-70
2024/02/21 02:39:38;;;;;;;26.67;7.57;;;11.40;99.90;;;11.68;100.00;101902.56;4974478;28;20050;-70
2024/02/21 02:42:08;;;;;;;27.23;7.72;;;11.40;99.90;;;11.63;100.00;101897.19;4974100;28;20519;-70
2024/02/21 02:44:37;;;;;;;24.13;7.90;;;11.40;99.90;;;11.64;100.00;101880.44;4989490;28;20097;-70
2024/02/21 02:47:05;;;;;;;20.17;7.47;;;11.40;99.90;;;11.64;100.00;101887.47;4974134;28;20039;-70
2024/02/21 02:49:33;;;;;;;26.63;7.72;;;11.40;99.90;;;11.62;100.00;101879.53;4974382;28;20528;-70
2024/02/21 02:52:02;;;;;;;22.73;7.70;;;11.40;99.90;;;11.55;100.00;101853.88;4974340;28;20043;-70
2024/02/21 02:54:30;;;;;;;22.15;6.95;;;11.40;99.90;;;11.71;100.00;101869.00;4974609;28;20131;-70
2024/02/21 02:56:58;;;;;;;25.45;8.32;;;11.40;99.90;;;11.62;100.00;101855.69;4974457;28;20090;-71
2024/02/21 02:59:28;;;;;;;21.55;7.88;;;11.40;99.90;;;11.60;100.00;101857.44;4974510;28;20097;-70
2024/02/21 03:01:56;;;;;;;22.13;7.57;;;11.40;99.90;;;11.69;100.00;101860.16;4974156;28;20046;-70
2024/02/21 03:04:25;;;;;;;19.05;7.72;;;11.40;99.90;;;11.62;100.00;101858.31;4973893;28;20069;-70
2024/02/21 03:06:55;;;;;;;27.60;8.15;;;11.40;99.90;;;11.64;100.00;101848.63;4974439;28;20062;-70
2024/02/21 03:09:23;;;;;;;27.27;7.97;;;11.40;99.90;;;11.64;100.00;101843.31;4973102;28;20043;-70
2024/02/21 03:11:52;;;;;;;22.77;7.68;;;11.40;99.90;;;11.75;100.00;101836.34;4973782;28;20062;-70
2024/02/21 03:14:20;;;;;;;19.10;7.15;;;11.40;99.90;;;11.78;100.00;101828.44;4973881;28;20051;-70
2024/02/21 03:16:52;;;;;;;19.75;7.22;;;11.50;99.90;;;11.73;100.00;101827.50;4972797;28;20047;-70
2024/02/21 03:19:21;;;;;;;21.60;7.88;;;11.50;99.90;;;11.52;100.00;101777.00;4973859;28;20039;-70
2024/02/21 03:21:50;;;;;;;26.00;8.68;;;11.50;99.90;;;11.74;100.00;101815.16;4973733;28;20039;-70
2024/02/21 03:24:19;;;;;;;21.40;8.68;;;11.50;99.90;;;11.67;100.00;101826.59;4973709;28;20046;-70
2024/02/21 03:26:48;;;;;;;20.00;7.95;;;11.50;99.90;;;11.75;100.00;101822.22;4973677;28;20039;-71
2024/02/21 03:29:17;;;;;;;19.20;7.55;;;11.50;99.90;;;11.61;100.00;101815.91;4974253;28;20090;-70
2024/02/21 03:31:45;;;;;;;22.90;8.63;;;11.40;99.90;;;11.58;100.00;101816.78;4972665;28;20471;-70
2024/02/21 03:34:15;;;;;;;28.13;8.73;;;11.30;99.90;;;11.57;100.00;101809.72;4973682;28;20045;-70
2024/02/21 03:36:44;;;;;;;23.77;9.23;;;11.30;99.90;;;11.60;100.00;101803.53;4973849;28;20063;-70
2024/02/21 03:39:12;;;;;;;22.55;8.73;;;11.40;99.90;;;11.67;100.00;101803.59;4972508;28;20516;-70
2024/02/21 03:41:41;;;;;;;23.08;9.23;;;11.40;99.90;;;11.65;100.00;101807.13;4973579;28;20039;-70
2024/02/21 03:44:09;;;;;;;20.38;8.32;;;11.40;99.90;;;11.67;100.00;101802.75;4973494;28;20476;-70
2024/02/21 03:46:37;;;;;;;17.70;8.82;;;11.40;99.90;;;11.76;100.00;101801.03;4974318;28;20050;-71
2024/02/21 03:49:06;;;;;;;16.65;8.40;;;11.50;99.90;;;11.73;100.00;101801.00;4988897;28;20070;-70
2024/02/21 03:51:35;;;;;;;25.42;8.65;;;11.40;99.90;;;11.73;100.00;101794.81;4973791;28;20050;-70
2024/02/21 03:54:04;;;;;;;27.33;9.70;;;11.40;99.90;;;11.72;100.00;101783.34;4976305;28;20057;-70
2024/02/21 03:56:32;;;;;;;19.63;8.88;;;11.50;99.90;;;11.71;100.00;101792.16;4977470;28;20121;-70
2024/02/21 03:59:01;;;;;;;26.45;8.85;;;11.40;99.90;;;11.70;100.00;101790.41;4977444;28;20042;-70
2024/02/21 04:01:29;;;;;;;18.35;8.80;;;11.40;99.90;;;11.70;100.00;101786.84;4977371;28;20042;-70
2024/02/21 04:03:57;;;;;;;21.00;8.85;;;11.40;99.90;;;11.71;100.00;101788.63;4992166;28;20050;-70
2024/02/21 04:06:26;;;;;;;22.58;9.60;;;11.40;99.90;;;11.74;100.00;101794.84;4976994;28;20086;-70
2024/02/21 04:08:56;;;;;;;22.58;10.43;;;11.50;99.90;;;11.69;100.00;101798.34;4977208;28;20055;-71
2024/02/21 04:11:24;;;;;;;19.33;9.50;;;11.40;99.90;;;11.62;100.00;101800.03;4977340;28;20043;-70
2024/02/21 04:13:53;;;;;;;21.55;10.75;;;11.40;99.90;;;11.58;100.00;101795.56;4975844;28;20149;-70
2024/02/21 04:16:21;;;;;;;20.58;9.40;;;11.40;99.90;;;11.64;100.00;101800.03;4977396;28;20459;-70
2024/02/21 04:18:50;;;;;;;16.65;9.38;;;11.30;99.90;;;11.61;100.00;101800.88;4977045;28;20065;-70
2024/02/21 04:21:18;;;;;;;18.67;9.82;;;11.40;99.90;;;11.57;100.00;101798.22;4976721;28;20034;-70
2024/02/21 04:23:47;;;;;;;20.15;9.98;;;11.30;99.90;;;11.61;100.00;101790.28;4976621;28;20456;-70
2024/02/21 04:26:16;;;;;;;20.90;10.05;;;11.30;99.90;;;11.57;100.00;101777.03;4976702;28;20059;-71
2024/02/21 04:28:46;;;;;;;25.67;10.50;;;11.30;99.90;;;11.51;100.00;101777.00;4976701;28;20554;-71
2024/02/21 04:31:15;;;;;;;19.00;10.15;;;11.20;99.90;;;11.50;100.00;101773.44;4976650;28;20340;-70
2024/02/21 04:33:43;;;;;;;19.33;9.85;;;11.20;99.90;;;11.57;100.00;101777.03;4976846;28;20035;-70
2024/02/21 04:36:12;;;;;;;18.73;10.25;;;11.30;99.90;;;11.57;100.00;101767.31;4976259;28;20055;-70
2024/02/21 04:38:41;;;;;;;16.42;9.70;;;11.30;99.90;;;11.59;100.00;101754.94;4976516;28;20054;-72
2024/02/21 04:41:09;;;;;;;23.33;10.30;;;11.30;99.90;;;11.54;100.00;101763.75;4976912;28;20043;-70
2024/02/21 04:43:39;;;;;;;17.17;10.32;;;11.30;99.90;;;11.54;100.00;101756.69;4976298;28;20043;-70
2024/02/21 04:46:08;;;;;;;18.70;10.07;;;11.30;99.90;;;11.54;100.00;101754.03;4975116;28;20086;-70
2024/02/21 04:48:36;;;;;;;18.23;9.75;;;11.30;99.90;;;11.50;100.00;101752.25;4976372;28;20050;-71
2024/02/21 04:51:05;;;;;;;20.80;10.48;;;11.20;99.90;;;11.46;100.00;101758.41;4976487;28;20492;-70
2024/02/21 04:53:33;;;;;;;18.20;10.23;;;11.20;99.90;;;11.52;100.00;101753.16;4976446;28;20070;-70
2024/02/21 04:56:02;;;;;;;15.43;9.98;;;11.20;99.90;;;11.55;100.00;101736.38;4976344;28;20053;-71
2024/02/21 04:58:30;;;;;;;17.00;10.48;;;11.30;99.90;;;11.49;100.00;101726.66;4976017;28;20133;-70
2024/02/21 05:01:00;;;;;;;17.60;10.25;;;11.30;99.90;;;11.52;100.00;101724.00;4976552;28;20055;-70
2024/02/21 05:03:29;;;;;;;20.13;11.02;;;11.30;99.90;;;11.44;100.00;101724.84;4976037;28;20054;-70
2024/02/21 05:05:57;;;;;;;20.25;10.60;;;11.20;99.90;;;11.30;100.00;101700.94;4990263;28;20043;-70
2024/02/21 05:08:25;;;;;;;16.23;10.93;;;11.20;99.90;;;11.48;100.00;101713.38;4976201;28;20050;-70
2024/02/21 05:10:54;;;;;;;16.05;10.50;;;11.20;99.90;;;11.52;100.00;101713.41;4976120;28;20085;-70
2024/02/21 05:13:23;;;;;;;15.80;10.70;;;11.20;99.90;;;11.46;100.00;101712.47;4990944;28;20051;-70
2024/02/21 05:15:51;;;;;;;17.83;10.68;;;11.20;99.90;;;11.36;100.00;101711.53;4975938;28;20405;-70
2024/02/21 05:18:21;;;;;;;18.05;11.45;;;11.10;99.90;;;11.27;100.00;101694.72;4976280;28;20129;-70
2024/02/21 05:20:49;;;;;;;18.23;11.25;;;11.10;99.90;;;11.39;100.00;101700.97;4976304;28;20054;-70
2024/02/21 05:23:18;;;;;;;17.35;10.98;;;11.10;99.90;;;11.32;100.00;101688.59;4991077;28;20055;-70
2024/02/21 05:25:46;;;;;;;18.67;12.13;;;11.10;99.90;;;11.31;100.00;101678.84;4975536;28;20076;-70
2024/02/21 05:28:15;;;;;;;19.95;12.30;;;11.10;99.90;;;11.33;100.00;101669.16;4975586;28;20399;-71
2024/02/21 05:30:44;;;;;;;19.92;12.63;;;11.10;99.90;;;11.35;100.00;101683.28;4975799;28;20047;-70
2024/02/21 05:33:12;;;;;;;19.42;12.27;;;11.10;99.90;;;11.32;100.00;101674.44;4975733;28;20038;-70
2024/02/21 05:35:42;;;;;;;18.25;11.88;;;11.10;99.90;;;10.69;100.00;101562.00;4975421;28;20382;-70
2024/02/21 05:38:11;;;;;;;18.47;12.63;;;11.10;99.90;;;11.37;100.00;101676.25;4988425;28;20058;-70
2024/02/21 05:40:40;;;;;;;18.67;12.38;;;11.10;99.90;;;11.41;100.00;101648.91;4975566;28;20407;-71
2024/02/21 05:43:09;;;;;;;18.92;13.18;;;11.20;99.90;;;11.35;100.00;101654.16;4975228;28;20137;-69
2024/02/21 05:45:38;;;;;;;20.77;14.27;;;11.10;99.90;;;11.21;100.00;101644.34;4990372;28;20105;-70
2024/02/21 05:48:07;;;;;;;20.75;13.88;;;11.00;99.90;;;11.15;100.00;101657.59;4975127;28;20563;-70
2024/02/21 05:50:35;;;;;;;22.27;14.45;;;10.90;99.90;;;11.27;100.00;101639.97;4975177;28;20404;-70
2024/02/21 05:53:05;;;;;;;23.75;15.48;;;11.00;99.90;;;11.22;100.00;101640.84;4975286;28;20047;-70
2024/02/21 05:55:34;;;;;;;23.80;15.93;;;11.00;99.90;;;11.22;100.00;101641.75;4975267;28;20133;-70
2024/02/21 05:58:03;;;;;;;24.17;15.65;;;10.90;99.90;;;11.24;100.00;101634.69;4973948;28;20492;-70
2024/02/21 06:00:31;;;;;;;22.88;16.23;;;11.00;99.90;;;11.13;100.00;101615.19;4975224;28;20624;-71
2024/02/21 06:03:01;;;;;;;25.48;17.35;;;11.00;99.90;;;10.72;100.00;101543.50;4974860;28;20043;-70
2024/02/21 06:05:29;;;;;;;23.42;16.15;;;11.00;99.90;;;11.37;100.00;101633.84;4975024;28;20043;-70
2024/02/21 06:07:58;;;;;;;24.13;16.67;;;11.10;99.90;;;11.36;100.00;101644.44;4974797;28;20511;-70
2024/02/21 06:10:27;;;;;;;24.85;17.67;;;11.10;99.90;;;11.39;100.00;101645.34;4974729;28;20046;-70
2024/02/21 06:12:56;;;;;;;29.00;17.38;;;11.10;99.90;;;11.28;100.00;101639.13;4989822;28;20050;-70
2024/02/21 06:15:24;;;;;;;29.75;17.58;;;11.10;99.90;;;11.21;100.00;101639.94;4974553;28;20493;-70
2024/02/21 06:17:53;;;;;;;31.08;16.58;;;11.00;99.90;;;11.23;100.00;101643.50;4974757;28;20051;-70
2024/02/21 06:20:21;;;;;;;28.95;17.02;;;11.00;99.90;;;11.24;100.00;101647.94;4974598;28;20496;-70
2024/02/21 06:22:49;;;;;;;27.98;17.33;;;11.00;99.90;;;11.24;100.00;101650.56;4974552;28;20043;-70
2024/02/21 06:25:18;;;;;;;29.23;17.20;;;10.90;99.90;;;11.25;100.00;101657.63;4974721;28;20046;-70
2024/02/21 06:27:48;;;;;;;27.25;16.10;;;11.00;99.90;;;10.41;100.00;101515.13;4974486;28;20046;-70
2024/02/21 06:30:16;;;;;;;31.13;16.40;;;11.00;99.90;;;11.10;100.00;101641.66;4974760;28;20063;-70
2024/02/21 06:32:45;;;;;;;27.65;15.60;;;10.90;99.90;;;11.17;100.00;101648.75;4974762;28;20043;-71
2024/02/21 06:35:13;;;;;;;29.20;15.80;;;10.90;99.90;;;11.19;100.00;101636.41;4974680;28;20047;-70
2024/02/21 06:37:42;;;;;;;31.98;15.82;;;10.90;99.90;;;11.16;100.00;101624.91;4974208;28;20082;-70
2024/02/21 06:40:11;;;;;;;27.40;15.52;;;10.90;99.90;;;11.04;100.00;101625.75;4974185;28;20062;-70
2024/02/21 06:42:39;;;;;;;29.15;15.27;;;10.90;99.90;;;11.08;100.00;101626.63;4974188;28;20051;-71
2024/02/21 06:45:10;;;;;;;28.45;16.05;;;10.90;99.90;;;11.16;100.00;101620.50;4989179;28;20054;-70
2024/02/21 06:47:38;;;;;;;28.95;15.43;;;10.90;99.90;;;11.25;100.00;101614.34;4974157;28;20586;-70
2024/02/21 06:50:08;;;;;;;29.35;17.15;;;10.90;99.90;;;11.29;100.00;101606.44;4974095;28;20484;-70
2024/02/21 06:52:37;;;;;;;30.63;16.95;;;11.00;99.90;;;11.25;100.00;101599.38;4989265;28;20058;-70
2024/02/21 06:55:06;;;;;;;28.23;16.63;;;11.00;99.90;;;11.26;100.00;101611.75;4974580;28;20055;-71
2024/02/21 06:57:34;;;;;;;28.10;16.83;;;11.00;99.90;;;11.27;100.00;101610.84;4974056;28;20042;-70
2024/02/21 07:00:03;;;;;;;30.73;16.80;;;11.00;99.90;;;11.30;100.00;101602.94;4972986;28;20555;-70
2024/02/21 07:02:33;;;;;;;28.77;15.93;;;11.10;99.90;;;11.29;100.00;101587.91;4974004;28;20065;-70
2024/02/21 07:05:01;;;;;;;28.57;15.87;;;11.10;99.90;;;11.27;100.00;101597.59;4974620;28;20054;-70
2024/02/21 07:07:30;;;;;;;27.42;16.50;;;11.00;99.90;;;11.25;100.00;101607.31;4974311;28;20066;-70
2024/02/21 07:10:00;;;;;;;32.58;16.13;;;11.10;99.90;;;11.27;100.00;101587.00;4974129;28;20126;-70
2024/02/21 07:12:28;;;;;;;28.23;16.60;;;11.00;99.90;;;11.16;100.00;101594.03;4974140;28;20050;-70
2024/02/21 07:14:57;;;;;;;31.67;16.52;;;11.00;99.90;;;11.15;100.00;101579.00;4973786;28;20050;-71
2024/02/21 07:17:25;;;;;;;28.58;17.15;;;10.90;99.90;;;11.12;100.00;101583.41;4973701;28;20046;-69
2024/02/21 07:19:56;;;;;;;28.80;16.00;;;10.90;99.90;;;11.11;100.00;101571.94;4989083;28;20412;-70
2024/02/21 07:22:25;;;;;;;35.70;17.02;;;10.90;99.90;;;11.01;100.00;101578.09;4988924;28;20086;-70
2024/02/21 07:24:53;;;;;;;35.13;17.25;;;10.80;99.90;;;10.84;100.00;101529.44;4973657;28;20512;-71
2024/02/21 07:27:22;;;;;;;29.75;17.30;;;10.80;99.90;;;11.09;100.00;101559.59;4973780;28;20440;-70
2024/02/21 07:29:50;;;;;;;27.92;17.20;;;10.80;99.90;;;11.03;100.00;101575.44;4977399;28;20493;-70
2024/02/21 07:32:19;;;;;;;35.92;17.67;;;10.80;99.90;;;10.95;100.00;101548.94;4977887;28;20369;-70
2024/02/21 07:34:47;;;;;;;28.58;17.05;;;10.70;99.90;;;10.95;100.00;101540.09;4992673;28;20047;-71
2024/02/21 07:37:17;;;;;;;34.55;17.65;;;10.70;99.90;;;10.84;100.00;101530.34;4977909;28;20134;-71
2024/02/21 07:39:45;;;;;;;31.08;17.35;;;10.70;99.90;;;10.97;100.00;101551.56;4977438;28;20042;-70
2024/02/21 07:42:15;;;;;;;30.73;17.50;;;10.70;99.90;;;10.95;100.00;101564.81;4977705;28;20053;-70
2024/02/21 07:44:43;;;;;;;29.67;17.45;;;10.70;99.90;;;11.00;100.00;101522.47;4992657;28;20078;-70
2024/02/21 07:47:12;;;;;;;28.90;18.08;;;10.80;99.90;;;10.94;100.00;101525.97;4992496;28;20046;-70
2024/02/21 07:49:45;;;;;;;28.98;17.70;;;10.70;99.90;;;10.99;100.00;101510.13;4976331;28;20058;-70
2024/02/21 07:52:13;;;;;;;26.60;16.20;;;10.70;99.90;;;11.02;100.00;101521.59;4977558;28;20125;-70
2024/02/21 07:54:44;;;;;;;24.20;16.83;;;10.80;99.90;;;10.89;100.00;101483.63;4977488;28;20047;-70
2024/02/21 07:57:12;;;;;;;32.30;16.95;;;10.80;99.90;;;11.05;100.00;101511.03;4977489;28;20122;-70
2024/02/21 07:59:41;;;;;;;29.77;16.85;;;10.80;99.90;;;11.08;100.00;101516.34;4977163;28;20051;-70
2024/02/21 08:02:09;;;;;;;26.70;16.13;;;10.80;99.90;;;11.07;100.00;101511.03;4977552;28;20097;-70
2024/02/21 08:04:38;;;;;;;24.88;15.88;;;10.80;99.90;;;11.14;100.00;101513.72;4977631;28;20057;-70
2024/02/21 08:07:07;;;;;;;31.83;18.52;;;10.90;99.90;;;11.17;100.00;101516.34;4976927;28;20042;-70
2024/02/21 08:09:37;;;;;;;31.00;18.10;;;11.00;99.90;;;11.25;100.00;101517.28;4976974;28;20051;-70
2024/02/21 08:12:08;;;;;;;31.88;18.48;;;11.00;99.90;;;11.16;100.00;101511.97;4992396;28;20050;-71
2024/02/21 08:14:36;;;;;;;;;;;11.00;99.90;;;10.93;100.00;101500.41;4977467;28;20047;-70
2024/02/21 08:17:05;;;;;;;35.50;19.38;;;10.90;99.90;;;10.83;100.00;101465.06;4976748;28;19922;-70
2024/02/21 08:19:34;;;;;;;34.78;20.10;;;10.80;99.90;;;10.93;100.00;101495.09;4977041;28;20411;-70
2024/02/21 08:22:03;;;;;;;37.88;19.98;;;10.80;99.90;;;10.80;100.00;101482.69;4976708;28;20123;-70
2024/02/21 08:24:31;;;;;;;39.25;19.33;;;10.60;99.90;;;10.81;100.00;101482.69;4977017;28;20118;-71
2024/02/21 08:26:59;;;;;;;33.90;19.50;;;10.60;99.90;;;10.84;100.00;101480.06;4975508;28;20457;-70
2024/02/21 08:29:29;;;;;;;32.45;19.23;;;10.60;99.90;;;10.90;100.00;101480.09;4976592;28;20098;-71
2024/02/21 08:31:58;;;;;;;28.90;18.93;;;10.70;99.90;;;10.88;100.00;101465.97;4976778;28;20050;-70
2024/02/21 08:34:26;;;;;;;30.30;18.80;;;10.70;99.90;;;10.88;100.00;101473.91;4991443;28;20042;-70
2024/02/21 08:36:55;;;;;;;28.80;19.20;;;10.70;99.90;;;10.88;100.00;101481.84;4991383;28;20063;-70
2024/02/21 08:39:24;;;;;;;28.80;18.05;;;10.70;99.90;;;10.87;100.00;101463.31;4976219;28;20543;-71
2024/02/21 08:41:52;;;;;;;31.40;18.00;;;10.70;99.90;;;10.91;100.00;101457.16;4976299;28;20034;-70
2024/02/21 08:44:26;;;;;;;34.38;18.77;;;10.70;99.90;;;10.91;100.00;101454.50;4976957;28;20122;-70
2024/02/21 08:46:56;;;;;;;32.05;18.63;;;10.70;99.90;;;10.80;100.00;101467.69;4976816;28;20050;-70
2024/02/21 08:49:28;;;;;;;30.25;17.48;;;10.70;99.90;;;10.85;100.00;101451.84;4976561;28;20049;-70
2024/02/21 08:52:02;;;;;;;29.88;18.13;;;10.60;99.90;;;10.89;100.00;101441.28;4976940;28;20046;-70
2024/02/21 08:54:31;;;;;;;32.63;17.80;;;10.70;99.90;;;10.91;100.00;101438.63;4976370;28;20058;-70
2024/02/21 08:56:59;;;;;;;26.75;17.13;;;10.70;99.90;;;10.98;100.00;101440.41;4976322;28;20579;-70
2024/02/21 08:59:28;;;;;;;27.30;17.65;;;10.70;99.90;;;10.87;100.00;101450.09;4991273;28;20059;-70
2024/02/21 09:01:57;;;;;;;28.00;17.35;;;10.70;99.90;;;10.98;100.00;101429.81;4976257;28;20400;-70
2024/02/21 09:04:26;;;;;;;28.47;17.10;;;10.70;99.90;;;10.99;100.00;101422.78;4976369;28;20054;-70
2024/02/21 09:06:55;;;;;;;30.50;17.98;;;10.80;99.90;;;10.99;100.00;101407.78;4975837;28;20039;-70
2024/02/21 09:09:24;;;;;;;25.92;16.80;;;10.80;99.90;;;10.96;100.00;101412.16;4991149;28;20101;-70
2024/02/21 09:11:57;;;;;;;27.60;16.98;;;10.80;99.90;;;10.94;100.00;101390.97;4976419;28;20042;-70
2024/02/21 09:14:26;;;;;;;27.77;18.08;;;10.70;99.90;;;11.00;100.00;101396.28;4975849;28;20075;-70
2024/02/21 09:16:55;;;;;;;31.33;18.63;;;10.80;99.90;;;11.08;100.00;101389.25;4990900;28;20138;-70
2024/02/21 09:19:25;;;;;;;27.92;18.10;;;10.80;99.90;;;11.04;100.00;101378.66;4975794;28;20118;-70
2024/02/21 09:21:54;;;;;;;29.90;19.00;;;10.90;99.90;;;10.94;100.00;101358.38;4990855;28;20051;-70
2024/02/21 09:24:23;;;;;;;30.27;18.27;;;10.80;99.90;;;11.06;100.00;101358.34;4975647;28;20456;-70
2024/02/21 09:26:51;;;;;;;26.10;18.13;;;10.80;99.90;;;11.09;100.00;101363.69;4975423;28;20073;-70
2024/02/21 09:29:19;;;;;;;28.20;17.50;;;10.80;99.90;;;11.05;100.00;101373.38;4990720;28;20404;-70
2024/02/21 09:31:53;;;;;;;32.03;17.92;;;10.80;99.90;;;10.90;100.00;101352.16;4975548;28;20070;-70
2024/02/21 09:34:21;;;;;;;32.47;18.33;;;10.70;99.90;;;10.95;100.00;101344.25;4975663;28;20050;-70
2024/02/21 09:36:52;;;;;;;38.55;18.50;;;10.70;99.90;;;11.00;100.00;101348.66;4975661;28;20059;-70
2024/02/21 09:39:21;;;;;;;30.02;17.83;;;10.80;99.90;;;11.00;100.00;101338.06;4975249;28;20039;-70
2024/02/21 09:41:56;;;;;;;29.50;18.17;;;10.80;99.90;;;10.84;100.00;101326.56;4975504;28;20049;-70
2024/02/21 09:44:25;;;;;;;26.63;17.27;;;10.70;99.90;;;10.89;100.00;101345.13;4990430;28;20058;-70
2024/02/21 09:47:00;;;;;;;30.20;18.10;;;10.70;99.90;;;10.92;100.00;101316.00;4975042;28;20086;-71
2024/02/21 09:49:32;;;;;;;26.85;17.50;;;10.70;99.90;;;10.87;100.00;101316.00;4975181;28;20062;-71
2024/02/21 09:52:05;;;;;;;31.45;17.33;;;10.70;99.90;;;10.80;100.00;101311.56;4974765;28;20050;-71
2024/02/21 09:54:35;;;;;;;26.35;17.67;;;10.70;99.90;;;10.87;100.00;101307.19;4974003;28;20053;-71
2024/02/21 09:57:05;;;;;;;30.80;17.67;;;10.70;99.90;;;10.62;100.00;101256.00;4974932;28;20491;-71
2024/02/21 09:59:34;;;;;;;25.30;17.48;;;10.70;99.90;;;10.98;100.00;101286.00;4975507;28;20047;-71
2024/02/21 10:02:03;;;;;;;25.35;17.25;;;10.80;99.90;;;11.04;100.00;101284.25;4974830;28;20062;-70